createdAt,value
2023-01-27T00:01:31.531Z,24
2023-01-27T00:06:23.789Z,23.6
2023-01-27T00:11:15.331Z,23.3
2023-01-27T00:16:07.049Z,23.5
2023-01-27T00:20:58.568Z,24.1
2023-01-27T00:25:50.507Z,23.5
2023-01-27T00:30:58.062Z,23.2
2023-01-27T00:36:05.329Z,23.5
2023-01-27T00:40:57.367Z,23.9
2023-01-27T00:45:48.395Z,23.4
2023-01-27T00:50:54.235Z,23.1
2023-01-27T00:55:45.238Z,23.7
2023-01-27T01:00:52.144Z,23.4
2023-01-27T01:05:58.995Z,22.3
2023-01-27T01:11:06.293Z,23.4
2023-01-27T01:16:13.781Z,24
2023-01-27T01:21:20.268Z,23.4
2023-01-27T01:26:26.950Z,23.3
2023-01-27T01:31:50.718Z,23.9
2023-01-27T01:37:12.853Z,23.6
2023-01-27T01:42:38.173Z,23.1
2023-01-27T01:48:01.003Z,23.6
2023-01-27T01:53:22.909Z,23.8
2023-01-27T01:58:46.904Z,23.2
2023-01-27T02:04:10.123Z,23.5
2023-01-27T02:09:32.500Z,23.8
2023-01-27T02:14:54.741Z,23.3
2023-01-27T02:20:02.443Z,23.3
2023-01-27T02:25:25.196Z,23.8
2023-01-27T02:30:32.641Z,23.5
2023-01-27T02:35:28.886Z,23.1
2023-01-27T02:40:51.325Z,23.6
2023-01-27T02:46:14.161Z,23.8
2023-01-27T02:51:36.895Z,23.1
2023-01-27T02:56:59.167Z,23.5
2023-01-27T03:02:21.148Z,23.9
2023-01-27T03:07:44.435Z,23.2
2023-01-27T03:13:06.685Z,23.2
2023-01-27T03:18:14.262Z,23.7
2023-01-27T03:23:36.836Z,22.8
2023-01-27T03:28:59.898Z,22.8
2023-01-27T03:34:07.796Z,23.8
2023-01-27T03:39:30.105Z,23.4
2023-01-27T03:44:52.789Z,22.9
2023-01-27T03:50:15.657Z,23.6
2023-01-27T03:55:38.562Z,23.6
2023-01-27T04:01:01.091Z,23.1
2023-01-27T04:06:23.813Z,23.5
2023-01-27T04:11:46.829Z,23.8
2023-01-27T04:17:10.126Z,23.1
2023-01-27T04:22:16.360Z,23.4
2023-01-27T04:27:41.803Z,23.9
2023-01-27T04:33:15.807Z,23.3
2023-01-27T04:38:27.928Z,23.3
2023-01-27T04:43:51.182Z,24
2023-01-27T04:48:58.938Z,23.4
2023-01-27T04:54:05.511Z,23
2023-01-27T04:59:13.069Z,23.6
2023-01-27T05:04:20.465Z,23.6
2023-01-27T05:09:28.966Z,23.1
2023-01-27T05:14:36.116Z,23.4
2023-01-27T05:19:43.417Z,24.6
2023-01-27T05:24:52.036Z,24
2023-01-27T05:30:14.546Z,24.1
2023-01-27T05:35:37.862Z,23.9
2023-01-27T05:40:44.647Z,22.3
2023-01-27T05:46:07.845Z,22.8
2023-01-27T05:51:32.648Z,24.5
2023-01-27T05:56:56.451Z,24.4
2023-01-27T06:01:48.613Z,23.9
2023-01-27T06:06:57.313Z,24.7
2023-01-27T06:12:04.528Z,24.6
2023-01-27T06:17:12.722Z,23.9
2023-01-27T06:22:19.533Z,24.7
2023-01-27T06:27:42.602Z,25
2023-01-27T06:33:18.659Z,24.1
2023-01-27T06:38:41.375Z,24.2
2023-01-27T06:44:04.230Z,25.1
2023-01-27T06:49:27.501Z,24.1
2023-01-27T06:54:50.305Z,24.3
2023-01-27T07:00:15.980Z,25.1
2023-01-27T07:05:40.924Z,24.2
2023-01-27T07:11:15.754Z,24.2
2023-01-27T07:16:40.162Z,24.9
2023-01-27T07:22:04.941Z,24.3
2023-01-27T07:27:22.682Z,23.9
2023-01-27T07:32:46.268Z,24.8
2023-01-27T07:38:11.372Z,24.9
2023-01-27T07:43:35.060Z,24.1
2023-01-27T07:48:42.838Z,24.9
2023-01-27T07:53:49.775Z,24.3
2023-01-27T07:59:12.919Z,22.9
2023-01-27T08:04:47.161Z,24.6
2023-01-27T08:10:17.833Z,24.9
2023-01-27T08:15:40.883Z,24.1
2023-01-27T08:21:04.029Z,24.7
2023-01-27T08:26:26.952Z,25.2
2023-01-27T08:31:50.374Z,24.1
2023-01-27T08:37:12.752Z,24.3
2023-01-27T08:42:37.796Z,24.9
2023-01-27T08:48:00.933Z,24.1
2023-01-27T08:53:23.422Z,24.2
2023-01-27T08:58:46.029Z,25
2023-01-27T09:04:10.123Z,24.1
2023-01-27T09:09:32.767Z,24.2
2023-01-27T09:15:05.334Z,24.9
2023-01-27T09:20:28.244Z,24.1
2023-01-27T09:25:50.932Z,24.1
2023-01-27T09:31:22.876Z,24.9
2023-01-27T09:36:46.001Z,24.1
2023-01-27T09:42:08.959Z,22.9
2023-01-27T09:47:33.926Z,22.8
2023-01-27T09:53:05.565Z,23.4
2023-01-27T09:58:28.056Z,22.9
2023-01-27T10:03:50.883Z,23.7
2023-01-27T10:09:14.185Z,23.5
2023-01-27T10:14:37.416Z,22.4
2023-01-27T10:20:00.527Z,23.6
2023-01-27T10:25:22.985Z,23.7
2023-01-27T10:30:45.133Z,23
2023-01-27T10:36:08.536Z,23.3
2023-01-27T10:41:31.381Z,23.9
2023-01-27T10:46:54.560Z,22.9
2023-01-27T10:52:17.369Z,23.4
2023-01-27T10:57:39.713Z,24
2023-01-27T11:04:06.199Z,23.2
2023-01-27T11:09:28.775Z,23.3
2023-01-27T11:14:51.723Z,23.7
2023-01-27T11:20:14.267Z,22.9
2023-01-27T11:25:49.453Z,22.6
2023-01-27T11:31:14.186Z,23.3
2023-01-27T11:36:36.571Z,22.6
2023-01-27T11:42:13.817Z,22.1
2023-01-27T11:47:36.122Z,21.8
2023-01-27T11:52:58.873Z,21.6
2023-01-27T11:58:21.679Z,21.3
2023-01-27T12:03:45.821Z,21.7
2023-01-27T12:09:08.824Z,22.9
2023-01-27T12:14:34.679Z,23.5
2023-01-27T12:19:42.243Z,22.6
2023-01-27T12:25:05.604Z,22
2023-01-27T12:30:28.092Z,22.1
2023-01-27T12:35:51.879Z,21.9
2023-01-27T12:41:14.976Z,21.4
2023-01-27T12:46:39.504Z,21.8
2023-01-27T12:52:02.369Z,23.4
2023-01-27T12:57:24.704Z,22.4
2023-01-27T13:02:50.895Z,21.5
2023-01-27T13:08:13.596Z,23.7
2023-01-27T13:13:36.614Z,24.4
2023-01-27T13:18:59.985Z,24
2023-01-27T13:23:51.727Z,23.4
2023-01-27T13:29:09.422Z,22.8
2023-01-27T13:34:34.183Z,22.4
2023-01-27T13:39:41.399Z,22.1
2023-01-27T13:45:04.360Z,22
2023-01-27T13:50:12.192Z,21.8
2023-01-27T13:55:22.468Z,21.6
2023-01-27T14:00:45.430Z,21.5
2023-01-27T14:06:09.035Z,21.2
2023-01-27T14:11:17.813Z,21.3
2023-01-27T14:27:24.578Z,20.7
2023-01-27T14:32:47.655Z,20.4
2023-01-27T14:38:10.132Z,18.4
2023-01-27T14:43:33.823Z,17.4
2023-01-27T14:49:18.742Z,16.9
2023-01-27T14:54:41.939Z,16.4
2023-01-27T15:00:04.947Z,16.1
2023-01-27T15:05:29.408Z,16.8
2023-01-27T15:10:52.143Z,17.7
2023-01-27T15:15:59.086Z,17.9
2023-01-27T15:21:21.857Z,18.1
2023-01-27T15:26:44.430Z,18.1
2023-01-27T15:32:08.098Z,18.2
2023-01-27T15:37:31.907Z,18.5
2023-01-27T15:42:53.789Z,18.8
2023-01-27T15:48:16.814Z,19
2023-01-27T15:53:41.563Z,24.7
2023-01-27T15:59:04.252Z,26.5
2023-01-27T16:04:32.221Z,26.4
2023-01-27T16:09:55.224Z,26.7
2023-01-27T16:15:18.392Z,26.9
2023-01-27T16:20:25.716Z,26.2
2023-01-27T16:25:49.250Z,27.1
2023-01-27T16:31:11.653Z,26.5
2023-01-27T16:36:35.126Z,26.3
2023-01-27T16:41:57.684Z,25.5
2023-01-27T16:47:33.707Z,25.1
2023-01-27T16:53:09.983Z,26.1
2023-01-27T16:58:45.371Z,27.2
2023-01-27T17:04:19.334Z,27.4
2023-01-27T17:09:43.705Z,26.8
2023-01-27T17:15:37.111Z,26.3
2023-01-27T17:21:10.580Z,26.4
2023-01-27T17:26:34.411Z,25.9
2023-01-27T17:32:01.403Z,26.6
2023-01-27T17:37:37.379Z,26.1
2023-01-27T17:43:05.429Z,27.6
2023-01-27T17:48:34.355Z,27.5
2023-01-27T17:54:03.921Z,27.3
2023-01-27T17:59:19.303Z,27.8
2023-01-27T18:04:32.051Z,26
2023-01-27T18:09:57.595Z,26.5
2023-01-27T18:15:26.031Z,25.9
2023-01-27T18:20:54.713Z,27.1
2023-01-27T18:26:26.226Z,26.6
2023-01-27T18:31:38.238Z,27
2023-01-27T18:37:09.704Z,27.7
2023-01-27T18:42:26.953Z,28
2023-01-27T18:48:07.779Z,27.4
2023-01-27T18:53:49.180Z,28.6
2023-01-27T18:59:29.015Z,29.6
2023-01-27T19:05:08.009Z,30.5
2023-01-27T19:10:40.992Z,31
2023-01-27T19:16:09.317Z,30.9
2023-01-27T19:21:36.684Z,29.9
2023-01-27T19:26:38.372Z,29.7
2023-01-27T19:31:52.779Z,29.7
2023-01-27T19:37:21.625Z,30.9
2023-01-27T19:42:52.949Z,30.2
2023-01-27T19:48:20.737Z,30.6
2023-01-27T19:53:48.529Z,29.9
2023-01-27T19:59:15.430Z,27.3
2023-01-27T20:04:45.783Z,25.3
2023-01-27T20:10:14.403Z,24.9
2023-01-27T20:15:42.267Z,25.3
2023-01-27T20:21:11.123Z,25.4
2023-01-27T20:26:39.018Z,25.3
2023-01-27T20:32:03.229Z,25.2
2023-01-27T20:37:13.359Z,24.7
2023-01-27T20:42:22.181Z,24.4
2023-01-27T20:47:58.547Z,24.1
2023-01-27T20:53:21.551Z,23.9
2023-01-27T20:58:44.478Z,23.6
2023-01-27T21:04:07.195Z,23.3
2023-01-27T21:09:30.772Z,23.2
2023-01-27T21:14:53.600Z,22.9
2023-01-27T21:20:17.255Z,22.5
2023-01-27T21:25:24.762Z,22
2023-01-27T21:30:34.976Z,21.6
2023-01-27T21:35:42.767Z,21.4
2023-01-27T21:41:05.552Z,22.3
2023-01-27T21:46:28.554Z,22.3
2023-01-27T21:51:51.207Z,21.9
2023-01-27T21:57:14.426Z,21.6
2023-01-27T22:02:38.897Z,21.4
2023-01-27T22:08:02.439Z,22.1
2023-01-27T22:13:25.822Z,22.3
2023-01-27T22:18:32.913Z,21.8
2023-01-27T22:23:39.042Z,21.6
2023-01-27T22:29:00.767Z,21.3
2023-01-27T22:34:23.428Z,22
2023-01-27T22:39:47.143Z,22.8
2023-01-27T22:45:09.923Z,22.4
2023-01-27T22:50:32.547Z,22.1
2023-01-27T22:55:54.466Z,21.8
2023-01-27T23:01:16.959Z,22.8
2023-01-27T23:06:40.517Z,23.1
2023-01-27T23:12:02.500Z,22.6
2023-01-27T23:17:26.123Z,22.6
2023-01-27T23:22:48.693Z,23.4
2023-01-27T23:28:11.323Z,22.8
2023-01-27T23:33:40.937Z,22.4
2023-01-27T23:39:21.825Z,23.1
2023-01-27T23:44:43.999Z,22.9
2023-01-27T23:50:06.487Z,22.3
2023-01-27T23:55:29.633Z,22.9
